Flight Track Log - Related Links

Times and Time Zones

All times are in EDT time to prevent confusion due to time zone crossing. See the FLG3780 flight status page for this flight to view local times or setup timezone preferences in your user account.

Time Position Orientation Groundspeed Altitude Reporting Facility
EDT Latitude Longitude Course Direction KTS MPH feet Rate Location/Type
Fri 09:20:53 AM 42.7236 -73.8081 304° West 157 181 1,300  Level Boston Center
Fri 09:21:17 AM 42.7069 -73.8075 179° South 170 196 2,000 1,786 Climbing Boston Center
Fri 09:22:17 AM 42.7122 -73.8783 276° West 243 280 3,800 2,488 Climbing Boston Center
Fri 09:23:00 AM 42.8111 -74.1776 281° West  Level FlightAware Approximate
Fri 09:23:20 AM 42.7675 -73.9561 314° West 289 333 7,100  Level Boston Center
Fri 09:24:00 AM 42.8297 -74.3078 281° West  Level FlightAware Approximate
Fri 09:24:20 AM 42.8164 -74.0336 311° West 284 327 9,700  Level Boston Center
Fri 09:25:00 AM 42.8507 -74.4374 283° West  Level FlightAware Approximate
Fri 09:25:20 AM 42.8575 -74.0886 316° Northwest 284 327 10,800  Level Boston Center
Fri 09:26:00 AM 42.8809 -74.5617 304° West  Level FlightAware Approximate
Fri 09:26:20 AM 42.8903 -74.2481 286° West 310 357 12,800  Level Boston Center
Fri 09:27:20 AM 42.9089 -74.3875 280° West 358 412 14,600 1,700 Climbing Boston Center
Fri 09:28:20 AM 42.9294 -74.5272 281° West 371 427 16,200 1,750 Climbing Boston Center
Fri 09:29:20 AM 42.9497 -74.6669 281° West 376 433 18,100 1,227 Climbing Boston Center
Fri 09:30:32 AM 42.9681 -74.7953 281° West 376 433 18,900 864 Climbing Boston Center
Fri 09:31:32 AM 42.9917 -74.9550 281° West 381 438 20,000 1,050 Climbing Boston Center
Fri 09:32:32 AM 43.0167 -75.1350 281° West 392 451 21,000 1,000 Climbing Boston Center
Fri 09:33:32 AM 43.0381 -75.2894 281° West 405 466 22,000 850 Climbing Boston Center
Fri 09:34:32 AM 43.0553 -75.4267 280° West 410 472 22,700 850 Climbing Boston Center
Fri 09:35:32 AM 43.0783 -75.5814 282° West 415 478 23,700 1,200 Climbing Boston Center
Fri 09:36:32 AM 43.0989 -75.7361 280° West 415 478 25,100 1,400 Climbing Boston Center
Fri 09:37:32 AM 43.1194 -75.8822 281° West 410 472 26,500 1,150 Climbing Boston Center
Fri 09:38:32 AM 43.1381 -76.0283 280° West 405 466 27,400 462 Climbing Boston Center
Fri 09:40:47 AM 43.1450 -76.3914 272° West 409 471 28,000 184 Climbing Cleveland Center
Fri 09:41:48 AM 43.1319 -76.5544 264° West 417 480 28,000  Level Cleveland Center
Fri 09:42:47 AM 43.1147 -76.7178 262° West 430 495 28,000  Level Cleveland Center
Fri 09:43:47 AM 43.1014 -76.8808 264° West 430 495 28,000  Level Cleveland Center
Fri 09:44:48 AM 43.0875 -77.0436 263° West 430 495 28,000  Level Cleveland Center
Fri 09:45:48 AM 43.0717 -77.2067 262° West 430 495 28,000  Level Cleveland Center
Fri 09:46:47 AM 43.0575 -77.3722 263° West 435 501 28,000  Level Cleveland Center
Fri 09:47:48 AM 43.0411 -77.5350 262° West 435 501 28,000  Level Cleveland Center
Fri 09:48:47 AM 43.0267 -77.7006 263° West 440 506 28,000  Level Cleveland Center
Fri 09:49:47 AM 43.0097 -77.8631 262° West 440 506 28,000  Level Cleveland Center
Fri 09:50:48 AM 42.9928 -78.0286 262° West 440 506 28,000  Level Cleveland Center
Fri 09:51:47 AM 42.9775 -78.1939 263° West 440 506 28,000  Level Cleveland Center
Fri 09:52:47 AM 42.9600 -78.3592 262° West 446 513 28,000  Level Cleveland Center
Fri 09:53:48 AM 42.9442 -78.5214 262° West 446 513 28,000  Level Cleveland Center
Fri 09:54:48 AM 42.9239 -78.6864 261° West 446 513 28,000  Level Cleveland Center
Fri 09:55:47 AM 42.9014 -78.8458 259° West 446 513 28,000  Level Cleveland Center
Fri 09:56:47 AM 42.8789 -79.0050 259° West 446 513 28,000  Level Cleveland Center
Fri 09:57:48 AM 42.8558 -79.1672 259° West 446 513 28,000  Level Cleveland Center
Fri 09:58:47 AM 42.8306 -79.3319 258° West 446 513 28,000  Level Cleveland Center
Fri 09:59:48 AM 42.8094 -79.4908 260° West 446 513 28,000  Level Cleveland Center
Fri 10:00:48 AM 42.7836 -79.6553 258° West 446 513 28,000  Level Cleveland Center
Fri 10:01:47 AM 42.7600 -79.8142 259° West 446 513 28,000  Level Cleveland Center
Fri 10:02:48 AM 42.7464 -79.9811 264° West 446 513 28,000  Level Cleveland Center
Fri 10:03:48 AM 42.7386 -80.1281 266° West 446 513 28,000  Level Cleveland Center
Fri 10:04:47 AM 42.7328 -80.2919 267° West 441 507 28,000  Level Cleveland Center
Fri 10:05:48 AM 42.7247 -80.4561 266° West 441 507 28,000  Level Cleveland Center
Fri 10:06:47 AM 42.7208 -80.6200 268° West 441 507 28,000  Level Cleveland Center
Fri 10:07:48 AM 42.7122 -80.7811 266° West 441 507 28,000 -397 Level Cleveland Center
Fri 10:08:48 AM 42.7036 -80.9308 266° West 441 507 27,200 -1,400 Descending Cleveland Center
Fri 10:09:48 AM 42.6819 -81.1256 261° West 441 507 25,200 -1,613 Descending Cleveland Center
Fri 10:10:47 AM 42.6603 -81.2975 260° West 456 525 24,000 -600 Descending Cleveland Center
Fri 10:11:48 AM 42.6403 -81.4694 261° West 465 535 24,000  Level Cleveland Center
Fri 10:12:48 AM 42.6200 -81.6383 261° West 465 535 24,000  Level Cleveland Center
Fri 10:13:48 AM 42.6042 -81.7708 261° West 460 529 24,000  Level Cleveland Center
Fri 10:14:48 AM 42.5814 -81.9508 260° West 455 524 24,000 -250 Level Cleveland Center
Fri 10:15:48 AM 42.5625 -82.1167 261° West 455 524 23,500 -2,450 Descending Cleveland Center
Fri 10:16:48 AM 42.5414 -82.2797 260° West 448 516 19,100 -4,150 Descending Cleveland Center
Fri 10:17:48 AM 42.5225 -82.4342 261° West 443 510 15,200 -3,302 Descending Cleveland Center
Fri 10:18:57 AM 42.4861 -82.6103 254° West 368 423 12,000 -1,846 Descending Cleveland Center
Fri 10:19:58 AM 42.4400 -82.7411 245° Southwest 379 436 11,200 -811 Descending Cleveland Center
Fri 10:20:48 AM 42.4153 -82.8331 250° West 384 442 10,500 -764 Descending Cleveland Center
Fri 10:21:48 AM 42.4192 -82.9514 273° West 347 399 9,800 -1,513 Descending Cleveland Center
Fri 10:22:47 AM 42.4144 -83.0694 267° West 306 352 7,500 -2,118 Descending Cleveland Center
Fri 10:23:13 AM 42.4033 -83.1111 250° West 273 314 6,800 -1,967 Descending Cleveland Center
Fri 10:23:48 AM 42.3853 -83.1639 245° Southwest 286 329 5,500 -2,300 Descending Cleveland Center
Fri 10:24:13 AM 42.3697 -83.2053 243° Southwest 262 302 4,500 -2,400 Descending Cleveland Center

Login

Don't have an account? Register now (free) for customized features, flight alerts, and more!